• Join FlightAware (Why Join?)
  • Login
  • US Flag 
12:27PM EDT


 

Airport Tracker/Info


-or-


 

Live Flight TrackerFlight Track Log ✈ N804JJ ✈ 11-Jun-2013 ✈ TA34 - KRYY

Flight Track Log - Related Links

Times and Time Zones

All times are in EDT time to prevent confusion due to time zone crossing. See the N804JJ flight status page for this flight to view local times or setup timezone preferences in your user account.

Time Position Orientation Groundspeed Altitude Reporting Facility
EDT Latitude Longitude Course Direction KTS MPH feet Rate Location/Type
01:44PM 28.9953 -99.5956 58° Northeast 345 397 17,500  Level Houston Center
01:45PM 29.0561 -99.5003 54° Northeast 367 422 19,900 2,280 Climbing Houston Center
01:47PM 29.1281 -99.3906 53° Northeast 361 415 22,300 1,920 Climbing Houston Center
01:48PM 29.1831 -99.2844 59° Northeast 377 434 23,900 1,500 Climbing Houston Center
01:49PM 29.0683 -99.3577 60° Northeast  Level Estimated
01:49PM 29.2411 -99.1714 60° Northeast 383 441 25,500  Level Houston Center
01:50PM 29.3036 -99.0697 55° Northeast 391 450 27,000 1,260 Climbing Houston Center
01:51PM 29.3642 -98.9525 59° Northeast 397 457 28,200 1,200 Climbing Houston Center
01:52PM 29.4400 -98.8506 49° Northeast 411 473 29,500 1,440 Climbing Houston Center
01:53PM 29.5075 -98.7342 56° Northeast 411 473 31,200 1,320 Climbing Houston Center
01:54PM 29.5611 -98.6178 62° Northeast 412 474 32,300 1,140 Climbing Houston Center
01:55PM 29.6178 -98.4975 62° Northeast 427 491 33,600 1,020 Climbing Houston Center
01:56PM 29.6817 -98.3794 58° Northeast 425 489 34,500 660 Climbing Houston Center
01:57PM 29.7375 -98.2481 64° Northeast 424 488 35,000 240 Climbing Houston Center
01:58PM 29.7903 -98.1206 64° Northeast 438 504 35,000  Level Houston Center
01:59PM 29.8492 -97.9819 64° Northeast 446 513 35,000  Level Houston Center
02:00PM 29.9053 -97.8522 63° Northeast 451 519 35,000  Level Houston Center
02:01PM 29.9586 -97.7083 67° East 454 522 35,000  Level Houston Center
02:02PM 30.0103 -97.5747 66° East 458 527 35,000  Level Houston Center
02:03PM 30.0617 -97.4442 66° East 464 534 35,100  Climbing Houston Center
02:04PM 30.1133 -97.3181 65° Northeast 460 529 35,000 -60 Descending Houston Center
02:05PM 30.1794 -97.1628 64° Northeast 458 527 35,000  Level Houston Center
02:06PM 30.2364 -97.0297 64° Northeast 461 531 35,000  Level Houston Center
02:07PM 30.2872 -96.8944 66° East 458 527 35,000  Level Houston Center
02:08PM 30.3336 -96.7550 69° East 460 529 35,000  Level Houston Center
02:09PM 30.3919 -96.6242 63° Northeast 459 528 35,000  Level Houston Center
02:10PM 30.4444 -96.4875 66° East 461 531 35,000  Level Houston Center
02:11PM 30.5086 -96.3311 65° Northeast 458 527 35,000  Level Houston Center
02:12PM 30.5608 -96.1947 66° East 460 529 35,000  Level Houston Center
02:13PM 30.6136 -96.0583 66° East 460 529 35,000  Level Houston Center
02:14PM 30.6703 -95.9139 65° Northeast 463 533 35,000  Level Houston Center
02:15PM 30.7250 -95.7711 66° East 466 536 35,000  Level Houston Center
02:17PM 30.7781 -95.6344 66° East 466 536 35,000  Level Houston Center
02:18PM 30.8311 -95.4961 66° East 467 537 35,000  Level Houston Center
02:19PM 30.8833 -95.3578 66° East 468 539 35,000  Level Houston Center
02:20PM 30.9381 -95.2181 65° Northeast 474 545 35,000  Level Houston Center
02:21PM 31.0000 -95.0506 67° East 471 542 35,000  Level Houston Center
02:22PM 31.0536 -94.9103 66° East 473 544 35,000  Level Houston Center
02:23PM 31.1044 -94.7706 67° East 475 547 35,000  Level Houston Center
02:24PM 31.1581 -94.6294 66° East 489 563 35,000  Level Houston Center
02:25PM 31.2333 -94.4336 66° East 484 557 35,000  Level Houston Center
02:26PM 31.2858 -94.2928 66° East 478 550 35,000  Level Houston Center
02:27PM 31.3392 -94.1500 66° East 479 551 35,000  Level Houston Center
02:28PM 31.3922 -94.0075 66° East 479 551 35,000  Level Houston Center
02:29PM 31.4436 -93.8656 67° East 477 549 35,000  Level Houston Center
02:30PM 31.5053 -93.6950 67° East 475 547 35,000  Level Houston Center
02:31PM 31.5586 -93.5511 66° East 473 544 35,000  Level Houston Center
02:32PM 31.6089 -93.4103 67° East 469 540 35,000  Level Houston Center
02:33PM 31.6406 -93.3261 66° East 469 540 35,000  Level Houston Center
02:34PM 31.6922 -93.1847 67° East 468 539 35,000  Level Houston Center
02:35PM 31.7414 -93.0450 67° East 464 534 35,000  Level Houston Center
02:36PM 31.7911 -92.9061 67° East 463 533 35,000  Level Houston Center
02:37PM 31.8414 -92.7661 67° East 464 534 35,000  Level Houston Center
02:38PM 31.9011 -92.5986 67° East 463 533 35,000  Level Houston Center
02:39PM 31.9489 -92.4572 68° East 465 535 35,000  Level Houston Center
02:40PM 31.9992 -92.3175 67° East 464 534 35,000  Level Houston Center
02:41PM 32.0494 -92.1769 67° East 466 536 35,000  Level Houston Center
02:42PM 32.0983 -92.0317 68° East 465 535 35,000  Level Houston Center
02:43PM 32.1464 -91.8886 68° East 467 537 35,000  Level Houston Center
02:44PM 32.2047 -91.7181 68° East 467 537 35,000  Level Houston Center
02:45PM 32.2536 -91.5747 68° East 471 542 35,000  Level Houston Center
02:46PM 32.3036 -91.4336 67° East 468 539 35,000  Level Houston Center
02:47PM 32.3511 -91.2903 69° East 467 537 35,000  Level Houston Center
02:48PM 32.3789 -91.2083 68° East 461 531 35,000  Level Memphis Center
02:49PM 32.4278 -91.0636 68° East 461 531 35,000  Level Memphis Center
02:50PM 32.4786 -90.9211 67° East 468 539 35,000  Level Memphis Center
02:51PM 32.5250 -90.7761 69° East 468 539 35,000  Level Memphis Center
02:52PM 32.5714 -90.6358 69° East 468 539 35,000  Level Memphis Center
02:53PM 32.6197 -90.4881 69° East 468 539 35,000  Level Memphis Center
02:54PM 32.6656 -90.3500 68° East 462 532 35,000  Level Memphis Center
02:55PM 32.7114 -90.2092 69° East 457 526 35,000  Level Memphis Center
02:56PM 32.7572 -90.0708 68° East 451 519 35,100  Climbing Memphis Center
02:57PM 32.8006 -89.9322 70° East 451 519 35,000 -60 Descending Memphis Center
02:58PM 32.8419 -89.8058 69° East 451 519 35,000  Level Memphis Center
02:59PM 32.8869 -89.6647 69° East 451 519 35,000  Level Memphis Center
03:00PM 32.9322 -89.5306 68° East 445 512 35,000  Level Memphis Center
03:01PM 32.9750 -89.3964 69° East 433 498 35,000  Level Memphis Center
03:02PM 33.0200 -89.2647 68° East 433 498 35,000  Level Memphis Center
03:03PM 33.0625 -89.1278 70° East 433 498 35,000  Level Memphis Center
03:04PM 33.1047 -88.9908 70° East 433 498 35,000  Level Memphis Center
03:05PM 33.1450 -88.8561 70° East 433 498 35,100  Climbing Memphis Center
03:06PM 33.1933 -88.7064 69° East 433 498 35,000 -60 Descending Memphis Center
03:07PM 33.2372 -88.5739 68° East 433 498 35,000  Level Memphis Center
03:08PM 33.2769 -88.4389 71° East 433 498 35,000  Level Memphis Center
03:09PM 33.3228 -88.3011 68° East 433 498 35,000  Level Memphis Center
03:11PM 33.3881 -88.0667 71° East 437 503 35,000  Level Atlanta Center
03:12PM 33.4300 -87.9317 70° East 437 503 35,000  Level Atlanta Center
03:13PM 33.4739 -87.7942 69° East 437 503 35,000  Level Atlanta Center
03:14PM 33.5136 -87.6564 71° East 437 503 35,000  Level Atlanta Center
03:15PM 33.5550 -87.5211 70° East 437 503 35,000 -300 Level Atlanta Center
03:16PM 33.5964 -87.3831 70° East 437 503 34,400 -840 Descending Atlanta Center
03:17PM 33.6378 -87.2425 70° East 437 503 33,400 -1,200 Descending Atlanta Center
03:18PM 33.6789 -87.1017 71° East 437 503 32,100 -960 Descending Atlanta Center
03:19PM 33.7200 -86.9608 71° East 437 503 31,500 -1,020 Descending Atlanta Center
03:20PM 33.7628 -86.8200 70° East 437 503 30,100 -1,620 Descending Atlanta Center
03:21PM 33.8036 -86.6786 71° East 442 509 28,300 -1,680 Descending Atlanta Center
03:22PM 33.8419 -86.5347 72° East 442 509 26,800 -2,100 Descending Atlanta Center
03:23PM 33.8844 -86.3936 70° East 442 509 24,100 -2,700 Descending Atlanta Center
03:24PM 33.9267 -86.2594 69° East 437 503 21,500 -2,640 Descending Atlanta Center
03:25PM 33.9644 -86.1253 71° East 427 491 18,900 -2,340 Descending Atlanta Center
03:26PM 33.9811 -86.0003 81° East 399 459 16,900 -2,400 Descending Atlanta Center
03:27PM 33.9728 -85.8697 94° East 386 444 14,100 -1,920 Descending Atlanta Center
03:28PM 33.9681 -85.7469 93° East 363 418 13,100 -720 Descending Atlanta Center
03:29PM 33.9697 -85.6319 89° East 342 394 12,700 -840 Descending Atlanta Center
03:30PM 33.9628 -85.5167 94° East 342 394 11,500 -1,320 Descending Atlanta Center
03:31PM 33.9578 -85.4086 93° East 336 387 10,100 -1,260 Descending Atlanta Center
03:32PM 33.9653 -85.3061 85° East 309 356 9,000 -900 Descending Atlanta Center
03:33PM 33.9661 -85.2136 89° East 288 331 8,400 -540 Descending Atlanta Center
03:34PM 33.9481 -85.1156 102° East 293 337 8,000 -420 Descending Atlanta Center
03:35PM 33.9386 -85.0203 97° East 293 337 7,600 -660 Descending Atlanta Center
03:36PM 33.9517 -84.9328 80° East 293 337 6,700 -1,260 Descending Atlanta Center
03:37PM 33.9775 -84.8331 73° East 298 343 5,100 -1,320 Descending Atlanta Center
03:38PM 34.0050 -84.7431 70° East 293 337 4,100 -960 Descending Atlanta Center
03:39PM 34.0328 -84.6606 68° East 270 311 3,200 -840 Descending Atlanta Center
03:40PM 34.0478 -84.5753 78° East 247 284 2,500 -720 Descending Atlanta Center
03:43PM 34.0132 -84.5971 203° Southwest  Level Estimated
03:50PM 34.0132 -84.5971 203° Southwest  Level Estimated